createdAt,value
2018-09-11T00:02:04.309Z,101019.10
2018-09-11T00:04:35.752Z,101018.41
2018-09-11T00:07:06.871Z,101013.98
2018-09-11T00:09:37.904Z,101019.10
2018-09-11T00:12:09.592Z,101027.84
2018-09-11T00:14:41.193Z,101021.53
2018-09-11T00:20:28.836Z,101025.62
2018-09-11T00:23:00.401Z,101022.05
2018-09-11T00:25:31.769Z,101028.05
2018-09-11T00:28:03.305Z,101024.65
2018-09-11T00:30:34.539Z,101022.58
2018-09-11T00:33:05.768Z,101023.95
2018-09-11T00:35:36.795Z,101010.61
2018-09-11T00:38:07.907Z,101015.20
2018-09-11T00:40:38.356Z,101014.36
2018-09-11T00:43:09.658Z,101022.05
2018-09-11T00:45:40.688Z,101027.00
2018-09-11T00:48:11.912Z,101032.86
2018-09-11T00:50:42.341Z,101036.97
2018-09-11T00:53:13.644Z,101045.70
2018-09-11T00:55:44.719Z,101042.23
2018-09-11T00:58:15.862Z,101033.25
2018-09-11T01:00:46.840Z,101045.50
2018-09-11T01:03:18.210Z,101036.97
2018-09-11T01:05:49.552Z,101032.34
2018-09-11T01:08:21.567Z,101030.30
2018-09-11T01:10:52.616Z,101032.52
2018-09-11T01:13:23.782Z,101034.55
2018-09-11T01:15:54.815Z,101029.31
2018-09-11T01:18:26.218Z,101041.78
2018-09-11T01:20:57.685Z,101044.83
2018-09-11T01:23:28.904Z,101045.19
2018-09-11T01:25:59.889Z,101043.98
2018-09-11T01:28:30.415Z,101042.09
2018-09-11T01:31:01.698Z,101044.05
2018-09-11T01:33:32.893Z,101038.38
2018-09-11T01:36:03.470Z,101036.83
2018-09-11T01:38:34.744Z,101034.94
2018-09-11T01:41:06.358Z,101037.73
2018-09-11T01:43:38.207Z,101038.23
2018-09-11T01:46:09.708Z,101039.42
2018-09-11T01:48:41.460Z,101035.31
2018-09-11T01:51:13.209Z,101040.52
2018-09-11T01:53:44.808Z,101035.35
2018-09-11T01:58:59.523Z,101037.21
2018-09-11T02:01:30.694Z,101030.23
2018-09-11T02:04:01.748Z,101031.91
2018-09-11T02:06:32.892Z,101028.86
2018-09-11T02:09:03.622Z,101023.03
2018-09-11T02:11:35.196Z,101020.96
2018-09-11T02:14:06.827Z,101015.17
2018-09-11T02:16:38.425Z,101011.24
2018-09-11T02:19:10.223Z,101011.62
2018-09-11T02:21:41.755Z,101002.85
2018-09-11T02:24:13.309Z,101003.55
2018-09-11T02:26:44.816Z,101007.66
2018-09-11T02:29:16.310Z,100996.39
2018-09-11T02:31:47.564Z,100997.38
2018-09-11T02:34:19.227Z,100998.08
2018-09-11T02:36:50.672Z,100994.16
2018-09-11T02:39:22.226Z,100997.41
2018-09-11T02:41:53.707Z,100996.75
2018-09-11T02:44:25.301Z,101002.75
2018-09-11T02:46:56.782Z,100998.47
2018-09-11T02:49:28.301Z,100999.97
2018-09-11T02:51:59.908Z,100997.77
2018-09-11T02:54:30.589Z,100986.67
2018-09-11T02:57:02.235Z,100988.22
2018-09-11T02:59:33.781Z,100986.85
2018-09-11T03:02:05.311Z,100981.06
2018-09-11T03:04:36.844Z,100983.59
2018-09-11T03:07:08.385Z,100979.83
2018-09-11T03:09:39.913Z,100984.44
2018-09-11T03:12:10.601Z,100988.92
2018-09-11T03:14:42.305Z,100987.38
2018-09-11T03:17:13.948Z,100995.24
2018-09-11T03:19:45.706Z,101000.26
2018-09-11T03:22:17.439Z,101005.55
2018-09-11T03:24:48.820Z,100998.89
2018-09-11T03:27:20.401Z,100993.03
2018-09-11T03:29:52.429Z,100999.94
2018-09-11T03:32:23.985Z,101007.80
2018-09-11T03:34:55.530Z,101000.95
2018-09-11T03:37:27.257Z,100998.57
2018-09-11T03:39:58.797Z,100993.80
2018-09-11T03:42:30.313Z,101003.69
2018-09-11T03:45:02.228Z,101002.19
2018-09-11T03:47:33.882Z,100997.55
2018-09-11T03:50:04.597Z,100997.06
2018-09-11T03:52:36.201Z,101001.66
2018-09-11T03:55:08.688Z,100999.27
2018-09-11T03:57:40.221Z,101004.25
2018-09-11T04:00:11.831Z,101005.77
2018-09-11T04:02:43.440Z,101008.50
2018-09-11T04:05:14.981Z,101005.30
2018-09-11T04:07:46.509Z,101006.50
2018-09-11T04:10:17.980Z,101002.39
2018-09-11T04:12:49.661Z,101012.95
2018-09-11T04:15:21.326Z,100999.45
2018-09-11T04:17:52.814Z,101007.48
2018-09-11T04:20:24.444Z,101005.59
2018-09-11T04:22:55.777Z,101006.81
2018-09-11T04:25:33.932Z,101008.70
2018-09-11T04:28:05.516Z,101011.83
2018-09-11T04:30:37.212Z,101007.52
2018-09-11T04:33:08.700Z,101013.69
2018-09-11T04:35:40.303Z,101011.62
2018-09-11T04:38:11.758Z,101017.44
2018-09-11T04:40:43.454Z,101002.42
2018-09-11T04:43:15.005Z,101009.94
2018-09-11T04:45:46.683Z,101020.35
2018-09-11T04:48:18.198Z,101020.03
2018-09-11T04:50:49.724Z,101029.23
2018-09-11T04:53:22.020Z,101028.03
2018-09-11T04:55:52.838Z,101031.83
2018-09-11T04:58:23.787Z,101021.58
2018-09-11T05:00:55.320Z,101036.45
2018-09-11T05:03:26.510Z,101035.23
2018-09-11T05:05:58.345Z,101036.07
2018-09-11T05:08:29.795Z,101036.25
2018-09-11T05:11:01.636Z,101040.70
2018-09-11T05:13:33.201Z,101037.30
2018-09-11T05:16:05.225Z,101035.58
2018-09-11T05:18:36.703Z,101043.16
2018-09-11T05:21:08.448Z,101043.47
2018-09-11T05:23:40.210Z,101049.26
2018-09-11T05:26:11.742Z,101048.41
2018-09-11T05:28:43.318Z,101051.83
2018-09-11T05:31:15.288Z,101053.72
2018-09-11T05:33:46.785Z,101051.83
2018-09-11T05:36:18.672Z,101052.14
2018-09-11T05:38:50.211Z,101055.41
2018-09-11T05:41:21.894Z,101048.24
2018-09-11T05:43:52.524Z,101048.24
2018-09-11T05:46:24.214Z,101052.49
2018-09-11T05:48:55.741Z,101044.14
2018-09-11T05:51:27.309Z,101045.65
2018-09-11T05:53:58.743Z,101043.44
2018-09-11T05:56:59.483Z,101041.72
2018-09-11T05:59:30.701Z,101043.75
2018-09-11T06:02:01.747Z,101038.60
2018-09-11T06:04:32.829Z,101036.01
2018-09-11T06:07:03.965Z,101036.89
2018-09-11T06:09:34.980Z,101042.70
2018-09-11T06:12:05.971Z,101048.84
2018-09-11T06:14:37.221Z,101043.58
2018-09-11T06:17:08.756Z,101046.47
2018-09-11T06:19:39.858Z,101036.53
2018-09-11T06:22:10.889Z,101040.08
2018-09-11T06:24:41.810Z,101043.28
2018-09-11T06:27:12.932Z,101044.09
2018-09-11T06:29:43.354Z,101039.14
2018-09-11T06:34:29.674Z,101031.07
2018-09-11T06:37:00.731Z,101037.39
2018-09-11T06:39:31.859Z,101032.61
2018-09-11T06:42:02.815Z,101033.42
2018-09-11T06:44:33.856Z,101024.41
2018-09-11T06:47:05.054Z,101031.88
2018-09-11T06:49:36.441Z,101032.52
2018-09-11T06:52:07.672Z,101030.44
2018-09-11T06:54:57.617Z,101035.04
2018-09-11T06:57:29.223Z,101038.13
2018-09-11T07:00:00.714Z,101033.53
2018-09-11T07:02:32.321Z,101032.44
2018-09-11T07:05:03.754Z,101034.13
2018-09-11T07:07:35.192Z,101030.93
2018-09-11T07:10:07.529Z,101027.14
2018-09-11T07:12:38.893Z,101020.58
2018-09-11T07:15:10.652Z,101019.77
2018-09-11T07:17:41.979Z,101029.11
2018-09-11T07:20:13.749Z,101027.56
2018-09-11T07:22:44.904Z,101023.27
2018-09-11T07:25:16.401Z,101020.02
2018-09-11T07:27:47.790Z,101023.73
2018-09-11T07:30:19.686Z,101022.05
2018-09-11T07:32:51.206Z,101022.19
2018-09-11T07:35:22.665Z,101021.30
2018-09-11T07:37:54.745Z,101022.32
2018-09-11T07:40:26.337Z,101007.74
2018-09-11T07:42:57.762Z,101015.30
2018-09-11T07:45:29.382Z,101019.41
2018-09-11T07:48:00.735Z,101019.41
2018-09-11T07:50:32.344Z,101016.80
2018-09-11T07:53:04.692Z,101021.89
2018-09-11T07:55:36.211Z,101021.19
2018-09-11T07:58:07.873Z,101027.44
2018-09-11T08:00:39.294Z,101029.97
2018-09-11T08:03:10.929Z,101038.28
2018-09-11T08:05:41.545Z,101029.83
2018-09-11T08:08:13.065Z,101027.23
2018-09-11T08:10:44.624Z,101027.58
2018-09-11T08:13:17.528Z,101019.86
2018-09-11T08:15:49.638Z,101021.05
2018-09-11T08:18:21.203Z,101013.36
2018-09-11T08:20:52.668Z,101009.91
2018-09-11T08:23:23.893Z,101012.55
2018-09-11T08:25:54.592Z,101005.84
2018-09-11T08:28:26.211Z,101004.44
2018-09-11T08:30:57.989Z,101006.51
2018-09-11T08:33:29.706Z,101005.45
2018-09-11T08:36:01.447Z,101011.77
2018-09-11T08:38:32.886Z,101002.85
2018-09-11T08:41:03.837Z,101002.72
2018-09-11T08:46:22.684Z,100999.66
2018-09-11T08:48:53.692Z,101001.73
2018-09-11T08:51:24.838Z,100999.91
2018-09-11T08:53:55.864Z,100995.28
2018-09-11T08:56:26.844Z,100989.41
2018-09-11T08:58:57.913Z,100993.20
2018-09-11T09:01:28.620Z,100990.64
2018-09-11T09:04:00.211Z,100990.12
2018-09-11T09:06:31.747Z,100992.05
2018-09-11T09:09:03.322Z,100984.34
2018-09-11T09:11:35.191Z,100981.53
2018-09-11T09:14:06.700Z,100981.01
2018-09-11T09:16:58.695Z,100974.41
2018-09-11T09:19:29.735Z,100979.50
2018-09-11T09:22:00.893Z,100984.31
2018-09-11T09:24:31.565Z,100976.59
2018-09-11T09:27:03.293Z,100972.13
2018-09-11T09:29:34.751Z,100961.70
2018-09-11T09:32:06.423Z,100964.30
2018-09-11T09:34:37.864Z,100960.91
2018-09-11T09:37:09.415Z,100960.06
2018-09-11T09:39:41.225Z,100970.45
2018-09-11T09:42:12.735Z,100961.56
2018-09-11T09:44:44.218Z,100949.68
2018-09-11T09:47:15.712Z,100955.42
2018-09-11T09:49:47.300Z,100949.15
2018-09-11T09:52:18.806Z,100950.34
2018-09-11T09:54:50.213Z,100947.29
2018-09-11T09:57:21.782Z,100941.73
2018-09-11T10:01:25.627Z,100941.47
2018-09-11T10:03:56.683Z,100944.91
2018-09-11T10:06:27.747Z,100953.08
2018-09-11T10:08:58.870Z,100948.97
2018-09-11T10:11:29.831Z,100941.16
2018-09-11T10:14:01.281Z,100944.20
2018-09-11T10:16:32.543Z,100942.91
2018-09-11T10:19:03.973Z,100934.17
2018-09-11T10:21:35.651Z,100927.72
2018-09-11T10:24:07.757Z,100923.22
2018-09-11T10:26:39.205Z,100920.88
2018-09-11T10:29:10.747Z,100931.75
2018-09-11T10:31:42.410Z,100931.44
2018-09-11T10:34:13.992Z,100922.55
2018-09-11T10:36:45.515Z,100924.77
2018-09-11T10:39:17.244Z,100922.55
2018-09-11T10:41:48.753Z,100917.92
2018-09-11T10:44:20.406Z,100920.48
2018-09-11T10:46:51.754Z,100910.06
2018-09-11T10:49:23.423Z,100912.66
2018-09-11T10:51:55.035Z,100915.39
2018-09-11T10:54:26.591Z,100910.45
2018-09-11T10:56:58.510Z,100913.55
2018-09-11T10:59:29.921Z,100905.16
2018-09-11T11:02:00.551Z,100916.10
2018-09-11T11:04:32.225Z,100904.31
2018-09-11T11:07:03.702Z,100901.58
2018-09-11T11:09:34.961Z,100913.89
2018-09-11T11:12:05.555Z,100907.36
2018-09-11T11:14:37.222Z,100894.87
2018-09-11T11:17:08.760Z,100897.39
2018-09-11T11:19:40.413Z,100901.36
2018-09-11T11:22:11.829Z,100896.02
2018-09-11T11:24:43.389Z,100893.15
2018-09-11T11:27:15.082Z,100904.23
2018-09-11T11:29:46.824Z,100909.08
2018-09-11T11:32:18.543Z,100905.95
2018-09-11T11:34:49.994Z,100895.00
2018-09-11T11:37:21.761Z,100896.02
2018-09-11T11:39:53.201Z,100905.08
2018-09-11T11:42:24.768Z,100903.22
2018-09-11T11:44:56.303Z,100910.38
2018-09-11T11:47:27.764Z,100903.53
2018-09-11T11:49:58.797Z,100902.87
2018-09-11T11:52:29.717Z,100909.92
2018-09-11T11:55:01.554Z,100909.53
2018-09-11T11:57:33.219Z,100911.74
2018-09-11T12:00:04.718Z,100908.83
2018-09-11T12:02:36.211Z,100903.34
2018-09-11T12:05:07.741Z,100905.21
2018-09-11T12:07:39.331Z,100906.93
2018-09-11T12:10:10.925Z,100901.45
2018-09-11T12:12:41.559Z,100912.20
2018-09-11T12:15:12.999Z,100910.69
2018-09-11T12:17:44.678Z,100905.73
2018-09-11T12:20:16.016Z,100907.63
2018-09-11T12:22:47.565Z,100905.08
2018-09-11T12:25:19.000Z,100900.97
2018-09-11T12:27:50.535Z,100902.16
2018-09-11T12:30:22.210Z,100900.27
2018-09-11T12:32:53.723Z,100900.12
2018-09-11T12:35:25.319Z,100900.48
2018-09-11T12:37:56.714Z,100901.89
2018-09-11T12:40:28.323Z,100906.34
2018-09-11T12:42:59.764Z,100906.34
2018-09-11T12:45:31.032Z,100897.86
2018-09-11T12:48:03.065Z,100902.03
2018-09-11T12:50:34.013Z,100903.70
2018-09-11T12:53:05.625Z,100903.70
2018-09-11T12:55:37.200Z,100914.34
2018-09-11T12:58:08.701Z,100916.55
2018-09-11T13:00:40.231Z,100917.39
2018-09-11T13:03:11.713Z,100911.92
2018-09-11T13:05:43.426Z,100910.06
2018-09-11T13:08:14.802Z,100914.80
2018-09-11T13:10:45.792Z,100919.95
2018-09-11T13:13:16.800Z,100910.23
2018-09-11T13:15:48.313Z,100905.42
2018-09-11T13:18:19.797Z,100902.16
2018-09-11T13:20:51.020Z,100898.05
2018-09-11T13:23:22.237Z,100905.08
2018-09-11T13:25:53.749Z,100899.50
2018-09-11T13:30:07.553Z,100898.17
2018-09-11T13:32:38.661Z,100893.50
2018-09-11T13:35:09.716Z,100897.26
2018-09-11T13:37:40.699Z,100887.67
2018-09-11T13:40:11.828Z,100893.15
2018-09-11T13:42:42.848Z,100897.39
2018-09-11T13:45:14.217Z,100893.68
2018-09-11T13:47:45.461Z,100894.20
2018-09-11T13:50:16.707Z,100888.20
2018-09-11T13:52:47.761Z,100889.05
2018-09-11T13:55:18.781Z,100889.92
2018-09-11T13:57:49.566Z,100896.77
2018-09-11T14:00:20.474Z,100893.68
2018-09-11T14:02:51.692Z,100901.05
2018-09-11T14:05:22.700Z,100889.92
2018-09-11T14:07:53.752Z,100886.52
2018-09-11T14:10:24.910Z,100877.83
2018-09-11T14:12:55.678Z,100872.13
2018-09-11T14:15:27.366Z,100873.98
2018-09-11T14:17:58.805Z,100865.28
2018-09-11T14:20:30.400Z,100862.20
2018-09-11T14:23:01.790Z,100865.78
2018-09-11T14:25:33.367Z,100859.02
2018-09-11T14:28:04.798Z,100864.94
2018-09-11T14:30:35.823Z,100876.41
2018-09-11T14:33:07.416Z,100859.54
2018-09-11T14:35:38.808Z,100870.76
2018-09-11T14:38:10.343Z,100865.07
2018-09-11T14:40:41.788Z,100869.05
2018-09-11T14:43:13.052Z,100863.04
2018-09-11T14:45:44.379Z,100861.17
2018-09-11T14:48:15.901Z,100854.34
2018-09-11T14:50:46.604Z,100848.52
2018-09-11T14:53:18.220Z,100858.44
2018-09-11T14:55:49.870Z,100856.33
2018-09-11T14:58:21.344Z,100846.44
2018-09-11T15:00:52.785Z,100851.25
2018-09-11T15:03:24.488Z,100855.36
2018-09-11T15:05:56.013Z,100851.07
2018-09-11T15:08:27.532Z,100845.91
2018-09-11T15:10:59.207Z,100846.57
2018-09-11T15:13:30.926Z,100845.73
2018-09-11T15:16:01.597Z,100836.15
2018-09-11T15:18:33.220Z,100840.56
2018-09-11T15:21:04.776Z,100844.02
2018-09-11T15:23:35.824Z,100845.38
2018-09-11T15:26:07.766Z,100839.38
2018-09-11T15:28:39.425Z,100844.23
2018-09-11T15:31:10.923Z,100847.09
2018-09-11T15:33:41.588Z,100851.52
2018-09-11T15:36:13.227Z,100840.39
2018-09-11T15:38:44.830Z,100839.86
2018-09-11T15:41:16.367Z,100843.63
2018-09-11T15:43:47.845Z,100841.23
2018-09-11T15:46:19.394Z,100844.94
2018-09-11T15:48:50.886Z,100834.70
2018-09-11T15:51:21.582Z,100847.86
2018-09-11T15:53:53.224Z,100830.06
2018-09-11T15:56:24.751Z,100831.30
2018-09-11T15:58:56.303Z,100828.25
2018-09-11T16:01:27.777Z,100828.95
2018-09-11T16:03:59.040Z,100825.52
2018-09-11T16:06:30.385Z,100828.25
2018-09-11T16:09:01.807Z,100822.59
2018-09-11T16:11:33.427Z,100827.54
2018-09-11T16:14:05.315Z,100831.96
2018-09-11T16:16:36.961Z,100828.06
2018-09-11T16:19:09.315Z,100822.06
2018-09-11T16:21:40.919Z,100821.72
2018-09-11T16:24:11.596Z,100817.30
2018-09-11T16:26:43.210Z,100818.36
2018-09-11T16:29:14.778Z,100827.41
2018-09-11T16:31:46.319Z,100832.54
2018-09-11T16:34:18.213Z,100824.33
2018-09-11T16:36:49.792Z,100827.59
2018-09-11T16:39:21.436Z,100822.20
2018-09-11T16:41:52.883Z,100827.59
2018-09-11T16:44:23.613Z,100831.83
2018-09-11T16:46:55.215Z,100824.45
2018-09-11T16:49:26.730Z,100833.41
2018-09-11T16:51:58.365Z,100812.61
2018-09-11T16:54:29.764Z,100820.22
2018-09-11T16:57:01.421Z,100818.67
2018-09-11T16:59:32.985Z,100812.53
2018-09-11T17:02:04.641Z,100809.66
2018-09-11T17:04:36.238Z,100814.30
2018-09-11T17:07:07.757Z,100815.80
2018-09-11T17:09:39.327Z,100819.72
2018-09-11T17:12:10.903Z,100810.77
2018-09-11T17:14:41.630Z,100814.88
2018-09-11T17:17:13.013Z,100817.12
2018-09-11T17:19:44.683Z,100815.22
2018-09-11T17:22:16.497Z,100819.98
2018-09-11T17:24:47.876Z,100816.91
2018-09-11T17:27:18.605Z,100816.51
2018-09-11T17:29:50.074Z,100815.48
2018-09-11T17:32:21.655Z,100810.80
2018-09-11T17:34:53.309Z,100817.64
2018-09-11T17:37:24.808Z,100815.88
2018-09-11T17:39:56.015Z,100821.53
2018-09-11T17:42:27.352Z,100817.77
2018-09-11T17:44:58.923Z,100814.64
2018-09-11T17:47:29.555Z,100816.66
2018-09-11T17:50:01.229Z,100815.92
2018-09-11T17:52:32.705Z,100819.19
2018-09-11T17:55:07.224Z,100816.58
2018-09-11T17:57:38.789Z,100819.66
2018-09-11T18:00:10.394Z,100811.32
2018-09-11T18:02:41.869Z,100813.95
2018-09-11T18:05:13.445Z,100821.18
2018-09-11T18:07:44.847Z,100824.17
2018-09-11T18:10:16.372Z,100823.83
2018-09-11T18:12:47.784Z,100830.51
2018-09-11T18:15:19.416Z,100826.72
2018-09-11T18:17:51.021Z,100827.50
2018-09-11T18:20:22.799Z,100824.89
2018-09-11T18:22:54.369Z,100836.81
2018-09-11T18:25:25.854Z,100842.73
2018-09-11T18:27:57.536Z,100841.58
2018-09-11T18:30:29.202Z,100850.11
2018-09-11T18:33:03.719Z,100850.64
2018-09-11T18:35:35.592Z,100854.36
2018-09-11T18:38:08.546Z,100852.41
2018-09-11T18:40:40.001Z,100859.39
2018-09-11T18:43:11.618Z,100866.16
2018-09-11T18:45:43.199Z,100864.20
2018-09-11T18:48:14.704Z,100865.88
2018-09-11T18:50:46.222Z,100867.65
2018-09-11T18:53:17.700Z,100866.09
2018-09-11T18:55:49.363Z,100867.78
2018-09-11T18:58:20.890Z,100873.66
2018-09-11T19:00:51.557Z,100872.73
2018-09-11T19:03:23.309Z,100876.61
2018-09-11T19:05:54.801Z,100882.84
2018-09-11T19:08:26.448Z,100878.82
2018-09-11T19:10:58.050Z,100889.78
2018-09-11T19:13:29.714Z,100887.09
2018-09-11T19:16:01.466Z,100887.36
2018-09-11T19:18:32.957Z,100897.78
2018-09-11T19:21:04.591Z,100892.56
2018-09-11T19:23:36.229Z,100896.14
2018-09-11T19:26:07.758Z,100895.52
2018-09-11T19:28:39.292Z,100888.02
2018-09-11T19:31:10.789Z,100895.70
2018-09-11T19:33:42.435Z,100888.47
2018-09-11T19:36:14.209Z,100897.73
2018-09-11T19:38:45.719Z,100895.30
2018-09-11T19:41:17.333Z,100888.06
2018-09-11T19:43:48.732Z,100898.00
2018-09-11T19:46:20.316Z,100899.24
2018-09-11T19:48:51.787Z,100900.78
2018-09-11T19:51:23.390Z,100907.19
2018-09-11T19:53:54.912Z,100909.98
2018-09-11T19:56:26.674Z,100903.92
2018-09-11T19:58:58.040Z,100904.45
2018-09-11T20:01:29.539Z,100905.69
2018-09-11T20:04:00.871Z,100907.50
2018-09-11T20:06:31.556Z,100909.86
2018-09-11T20:09:02.980Z,100913.64
2018-09-11T20:11:34.686Z,100914.70
2018-09-11T20:14:06.653Z,100918.02
2018-09-11T20:16:38.304Z,100926.95
2018-09-11T20:19:09.759Z,100932.96
2018-09-11T20:21:41.140Z,100939.99
2018-09-11T20:24:12.683Z,100943.66
2018-09-11T20:26:44.751Z,100942.28
2018-09-11T20:29:16.298Z,100938.70
2018-09-11T20:31:47.780Z,100928.77
2018-09-11T20:34:19.371Z,100931.77
2018-09-11T20:36:50.847Z,100933.94
2018-09-11T20:39:22.378Z,100931.20
2018-09-11T20:41:53.832Z,100933.27
2018-09-11T20:44:25.358Z,100934.98
2018-09-11T20:46:56.847Z,100935.25
2018-09-11T20:49:28.380Z,100928.59
2018-09-11T20:51:59.952Z,100940.73
2018-09-11T20:54:30.599Z,100937.64
2018-09-11T20:57:02.208Z,100934.02
2018-09-11T20:59:33.761Z,100941.31
2018-09-11T21:02:05.019Z,100936.02
2018-09-11T21:04:36.728Z,100937.06
2018-09-11T21:07:08.305Z,100940.52
2018-09-11T21:09:39.869Z,100945.86
2018-09-11T21:12:10.583Z,100943.66
2018-09-11T21:14:42.210Z,100938.97
2018-09-11T21:17:13.778Z,100935.25
2018-09-11T21:19:45.404Z,100933.88
2018-09-11T21:22:23.794Z,100929.95
2018-09-11T21:24:55.429Z,100938.83
2018-09-11T21:27:26.882Z,100931.64
2018-09-11T21:29:57.564Z,100934.86
2018-09-11T21:32:29.017Z,100926.95
2018-09-11T21:35:00.734Z,100933.62
2018-09-11T21:37:32.302Z,100929.30
2018-09-11T21:40:03.720Z,100932.70
2018-09-11T21:42:35.284Z,100927.66
2018-09-11T21:45:07.302Z,100930.75
2018-09-11T21:47:38.777Z,100926.16
2018-09-11T21:50:10.399Z,100926.95
2018-09-11T21:52:41.842Z,100930.67
2018-09-11T21:55:13.452Z,100928.45
2018-09-11T21:57:44.965Z,100927.74
2018-09-11T22:00:16.744Z,100931.91
2018-09-11T22:02:48.211Z,100930.35
2018-09-11T22:05:19.721Z,100932.12
2018-09-11T22:07:51.390Z,100925.98
2018-09-11T22:10:22.787Z,100928.32
2018-09-11T22:12:53.867Z,100930.35
2018-09-11T22:15:24.190Z,100922.80
2018-09-11T22:17:55.683Z,100925.41
2018-09-11T22:20:27.232Z,100929.95
2018-09-11T22:22:58.697Z,100924.87
2018-09-11T22:25:30.337Z,100918.08
2018-09-11T22:28:01.792Z,100910.38
2018-09-11T22:30:33.425Z,100914.09
2018-09-11T22:33:04.828Z,100913.12
2018-09-11T22:35:36.434Z,100911.94
2018-09-11T22:38:07.908Z,100915.34
2018-09-11T22:40:38.532Z,100907.83
2018-09-11T22:43:09.868Z,100916.05
2018-09-11T22:45:41.434Z,100902.17
2018-09-11T22:48:12.806Z,100915.73
2018-09-11T22:50:44.307Z,100905.88
2018-09-11T22:53:15.810Z,100918.78
2018-09-11T22:55:47.397Z,100916.78
2018-09-11T22:58:18.766Z,100911.67
2018-09-11T23:00:50.404Z,100910.64
2018-09-11T23:03:22.146Z,100904.38
2018-09-11T23:05:53.631Z,100909.33
2018-09-11T23:08:24.896Z,100913.17
2018-09-11T23:10:56.506Z,100908.44
2018-09-11T23:13:28.219Z,100901.25
2018-09-11T23:15:59.714Z,100906.72
2018-09-11T23:18:31.425Z,100910.64
2018-09-11T23:21:02.871Z,100903.32
2018-09-11T23:23:34.363Z,100907.25
2018-09-11T23:26:05.891Z,100901.82
2018-09-11T23:28:36.555Z,100903.01
2018-09-11T23:31:08.192Z,100911.36
2018-09-11T23:33:39.809Z,100906.41
2018-09-11T23:36:11.301Z,100902.69
2018-09-11T23:38:42.867Z,100905.93
2018-09-11T23:41:14.385Z,100900.98
2018-09-11T23:43:46.904Z,100905.09
2018-09-11T23:46:18.552Z,100903.23
2018-09-11T23:48:50.821Z,100902.84
2018-09-11T23:51:22.318Z,100902.34
2018-09-11T23:53:53.828Z,100900.63
2018-09-11T23:56:25.401Z,100897.45
2018-09-11T23:58:56.852Z,100893.34
